createdAt,value
2019-01-30T00:00:58.728Z,98952.66
2019-01-30T00:10:54.700Z,98933.87
2019-01-30T00:13:25.043Z,98933.47
2019-01-30T00:19:27.163Z,98929.45
2019-01-30T00:21:57.470Z,98926.16
2019-01-30T00:24:27.837Z,98930.53
2019-01-30T00:26:58.299Z,98926.66
2019-01-30T00:34:07.815Z,98923.23
2019-01-30T00:36:38.157Z,98907.84
2019-01-30T00:48:00.105Z,98891.16
2019-01-30T00:50:26.189Z,98887.61
2019-01-30T00:52:56.543Z,98877.71
2019-01-30T00:55:27.593Z,98874.59
2019-01-30T00:57:58.018Z,98876.34
2019-01-30T01:00:28.501Z,98881.15
2019-01-30T01:02:58.993Z,98874.44
2019-01-30T01:06:29.874Z,98873.46
2019-01-30T01:08:59.326Z,98880.91
2019-01-30T01:12:44.656Z,98878.08
2019-01-30T01:15:15.465Z,98880.30
2019-01-30T01:17:46.018Z,98878.48
2019-01-30T01:20:16.627Z,98875.05
2019-01-30T01:22:47.586Z,98868.05
2019-01-30T01:25:18.184Z,98872.98
2019-01-30T01:31:16.163Z,98870.03
2019-01-30T01:33:46.515Z,98869.11
2019-01-30T01:36:16.905Z,98864.02
2019-01-30T01:38:47.318Z,98857.23
2019-01-30T01:41:17.603Z,98860.28
2019-01-30T01:43:47.901Z,98861.59
2019-01-30T01:46:18.313Z,98854.72
2019-01-30T02:00:21.213Z,98834.03
2019-01-30T02:02:51.515Z,98837.83
2019-01-30T02:05:23.084Z,98841.58
2019-01-30T02:07:53.658Z,98835.80
2019-01-30T02:10:25.634Z,98841.58
2019-01-30T02:12:56.065Z,98835.19
2019-01-30T02:15:26.491Z,98829.62
2019-01-30T02:17:56.928Z,98830.22
2019-01-30T02:20:32.679Z,98827.72
2019-01-30T02:23:03.045Z,98822.98
2019-01-30T02:25:33.409Z,98823.59
2019-01-30T02:28:03.820Z,98821.40
2019-01-30T02:30:34.696Z,98815.99
2019-01-30T02:37:02.876Z,98807.53
2019-01-30T02:39:33.143Z,98799.20
2019-01-30T02:42:03.413Z,98791.87
2019-01-30T02:46:01.609Z,98789.69
2019-01-30T02:49:17.721Z,98787.31
2019-01-30T02:52:10.969Z,98784.91
2019-01-30T02:54:41.414Z,98786.23
2019-01-30T02:57:11.674Z,98779.80
2019-01-30T02:59:42.027Z,98782.37
2019-01-30T03:02:56.642Z,98779.80
2019-01-30T03:05:27.119Z,98773.02
2019-01-30T03:07:57.778Z,98773.85
2019-01-30T03:10:28.269Z,98770.91
2019-01-30T03:12:58.650Z,98767.78
2019-01-30T03:15:29.110Z,98759.20
2019-01-30T03:17:59.839Z,98762.23
2019-01-30T03:20:30.353Z,98756.24
2019-01-30T03:23:00.711Z,98760.63
2019-01-30T03:25:31.168Z,98753.06
2019-01-30T03:28:02.082Z,98759.36
2019-01-30T03:30:33.257Z,98756.69
2019-01-30T03:33:03.662Z,98756.94
2019-01-30T03:35:34.087Z,98755.09
2019-01-30T03:38:04.780Z,98754.25
2019-01-30T03:40:35.158Z,98743.89
2019-01-30T03:43:05.469Z,98747.95
2019-01-30T03:45:36.257Z,98746.79
2019-01-30T03:48:06.629Z,98745.44
2019-01-30T03:50:37.127Z,98746.36
2019-01-30T03:53:07.449Z,98738.66
2019-01-30T03:55:37.759Z,98738.60
2019-01-30T03:58:08.172Z,98726.62
2019-01-30T04:00:38.481Z,98728.78
2019-01-30T04:03:08.868Z,98731.91
2019-01-30T04:05:39.298Z,98724.54
2019-01-30T04:08:10.119Z,98718.97
2019-01-30T04:10:40.526Z,98722.06
2019-01-30T04:13:10.944Z,98711.94
2019-01-30T04:15:41.456Z,98705.38
2019-01-30T04:18:11.955Z,98705.83
2019-01-30T04:20:42.431Z,98701.73
2019-01-30T04:23:12.989Z,98701.95
2019-01-30T04:25:43.312Z,98693.92
2019-01-30T04:28:13.673Z,98696.88
2019-01-30T04:30:44.183Z,98685.86
2019-01-30T04:33:14.590Z,98684.20
2019-01-30T04:35:45.044Z,98679.95
2019-01-30T04:38:15.465Z,98679.24
2019-01-30T04:40:45.847Z,98673.58
2019-01-30T04:43:16.155Z,98660.95
2019-01-30T04:45:46.587Z,98662.16
2019-01-30T04:54:43.889Z,98653.36
2019-01-30T04:57:14.342Z,98653.81
2019-01-30T04:59:44.667Z,98661.25
2019-01-30T05:02:15.023Z,98658.48
2019-01-30T05:04:45.313Z,98650.91
2019-01-30T05:07:15.554Z,98654.46
2019-01-30T05:09:46.170Z,98645.34
2019-01-30T05:12:16.530Z,98652.03
2019-01-30T05:14:46.867Z,98647.09
2019-01-30T05:17:17.316Z,98642.13
2019-01-30T05:19:47.601Z,98645.25
2019-01-30T05:22:17.981Z,98645.46
2019-01-30T05:24:48.490Z,98645.49
2019-01-30T05:27:19.293Z,98651.06
2019-01-30T05:29:49.814Z,98651.24
2019-01-30T05:35:55.006Z,98651.81
2019-01-30T05:38:25.334Z,98651.27
2019-01-30T05:40:55.708Z,98648.70
2019-01-30T05:43:26.413Z,98642.47
2019-01-30T05:45:56.837Z,98643.34
2019-01-30T05:48:27.316Z,98637.59
2019-01-30T05:50:57.773Z,98637.89
2019-01-30T05:53:28.225Z,98623.08
2019-01-30T05:55:58.662Z,98618.38
2019-01-30T05:58:30.045Z,98620.23
2019-01-30T06:03:56.487Z,98617.23
2019-01-30T06:06:26.806Z,98608.35
2019-01-30T06:08:57.184Z,98606.13
2019-01-30T06:11:27.508Z,98602.80
2019-01-30T06:13:57.838Z,98608.26
2019-01-30T06:16:28.316Z,98606.89
2019-01-30T06:18:58.640Z,98610.01
2019-01-30T06:21:28.951Z,98606.52
2019-01-30T06:23:59.455Z,98603.39
2019-01-30T06:26:30.163Z,98610.21
2019-01-30T06:29:00.585Z,98598.36
2019-01-30T06:31:31.394Z,98595.77
2019-01-30T06:34:01.718Z,98598.00
2019-01-30T06:36:32.210Z,98607.06
2019-01-30T06:49:36.158Z,98605.01
2019-01-30T06:57:03.243Z,98601.52
2019-01-30T06:59:14.007Z,98598.83
2019-01-30T07:01:44.498Z,98596.41
2019-01-30T07:04:14.913Z,98576.33
2019-01-30T07:06:45.316Z,98589.41
2019-01-30T07:09:15.662Z,98583.97
2019-01-30T07:11:45.976Z,98582.83
2019-01-30T07:14:16.328Z,98584.14
2019-01-30T07:20:39.596Z,98582.40
2019-01-30T07:23:10.509Z,98577.31
2019-01-30T07:25:40.886Z,98581.55
2019-01-30T07:28:11.295Z,98590.77
2019-01-30T07:30:42.591Z,98590.92
2019-01-30T07:36:51.220Z,98588.05
2019-01-30T07:42:51.038Z,98575.73
2019-01-30T07:45:23.027Z,98578.62
2019-01-30T07:47:53.343Z,98579.02
2019-01-30T07:50:23.760Z,98579.16
2019-01-30T07:52:54.164Z,98573.31
2019-01-30T07:56:10.980Z,98567.23
2019-01-30T07:58:41.477Z,98567.08
2019-01-30T08:01:18.824Z,98564.97
2019-01-30T08:04:00.684Z,98570.23
2019-01-30T08:06:52.600Z,98579.89
2019-01-30T08:09:40.851Z,98579.86
2019-01-30T08:12:26.987Z,98587.82
2019-01-30T08:15:23.092Z,98585.30
2019-01-30T08:17:36.171Z,98578.36
2019-01-30T08:20:09.007Z,98580.73
2019-01-30T08:22:41.297Z,98586.25
2019-01-30T08:26:12.300Z,98583.23
2019-01-30T08:28:42.798Z,98590.70
2019-01-30T08:34:14.510Z,98581.70
2019-01-30T08:36:44.951Z,98586.22
2019-01-30T08:39:15.571Z,98578.50
2019-01-30T08:42:41.207Z,98575.11
2019-01-30T08:45:25.923Z,98573.98
2019-01-30T08:57:43.169Z,98570.08
2019-01-30T09:00:16.397Z,98569.25
2019-01-30T09:05:22.715Z,98572.56
2019-01-30T09:14:08.200Z,98571.58
2019-01-30T09:16:39.322Z,98574.64
2019-01-30T09:19:09.656Z,98575.48
2019-01-30T09:21:40.146Z,98567.28
2019-01-30T09:24:10.597Z,98574.36
2019-01-30T09:26:41.030Z,98566.41
2019-01-30T09:29:11.534Z,98560.39
2019-01-30T09:31:42.522Z,98567.41
2019-01-30T09:34:12.846Z,98561.33
2019-01-30T09:36:43.695Z,98560.21
2019-01-30T09:39:34.671Z,98550.14
2019-01-30T09:42:05.206Z,98554.19
2019-01-30T09:44:55.390Z,98546.47
2019-01-30T09:47:26.269Z,98556.44
2019-01-30T09:52:34.358Z,98546.60
2019-01-30T09:58:36.115Z,98547.16
2019-01-30T10:01:25.421Z,98545.64
2019-01-30T10:03:55.836Z,98540.00
2019-01-30T10:06:26.169Z,98531.48
2019-01-30T10:08:56.463Z,98538.39
2019-01-30T10:11:26.894Z,98531.52
2019-01-30T10:13:57.488Z,98524.70
2019-01-30T10:16:28.772Z,98529.20
2019-01-30T10:18:59.089Z,98513.45
2019-01-30T10:21:29.508Z,98515.46
2019-01-30T10:23:59.890Z,98514.56
2019-01-30T10:26:30.320Z,98520.27
2019-01-30T10:29:00.812Z,98509.33
2019-01-30T10:32:14.001Z,98510.67
2019-01-30T10:34:45.187Z,98522.34
2019-01-30T10:37:42.672Z,98504.19
2019-01-30T10:40:15.877Z,98503.26
2019-01-30T10:49:36.917Z,98507.64
2019-01-30T10:52:09.537Z,98507.97
2019-01-30T10:54:39.911Z,98503.98
2019-01-30T10:57:12.838Z,98502.53
2019-01-30T10:59:43.175Z,98495.20
2019-01-30T11:02:14.255Z,98495.12
2019-01-30T11:04:44.561Z,98489.70
2019-01-30T11:07:15.147Z,98496.96
2019-01-30T11:09:45.669Z,98489.08
2019-01-30T11:12:16.094Z,98489.52
2019-01-30T11:14:46.832Z,98479.29
2019-01-30T11:20:30.866Z,98485.75
2019-01-30T11:23:01.952Z,98482.67
2019-01-30T11:25:34.297Z,98461.25
2019-01-30T11:28:05.441Z,98464.21
2019-01-30T11:30:35.946Z,98446.28
2019-01-30T11:33:06.445Z,98463.34
2019-01-30T11:35:37.069Z,98468.94
2019-01-30T11:38:09.009Z,98460.31
2019-01-30T11:40:39.900Z,98455.25
2019-01-30T11:43:10.252Z,98459.00
2019-01-30T11:45:42.640Z,98455.27
2019-01-30T11:48:13.011Z,98450.80
2019-01-30T11:53:54.554Z,98439.81
2019-01-30T11:56:25.064Z,98434.47
2019-01-30T11:58:55.704Z,98430.73
2019-01-30T12:01:26.123Z,98429.38
2019-01-30T12:03:56.524Z,98414.62
2019-01-30T12:06:26.940Z,98429.03
2019-01-30T12:08:57.394Z,98431.15
2019-01-30T12:11:27.713Z,98433.26
2019-01-30T12:13:58.525Z,98425.11
2019-01-30T12:16:29.452Z,98426.42
2019-01-30T12:19:00.167Z,98425.91
2019-01-30T12:21:53.475Z,98426.13
2019-01-30T12:24:23.999Z,98426.28
2019-01-30T12:26:54.423Z,98425.78
2019-01-30T12:29:26.018Z,98424.02
2019-01-30T12:31:56.521Z,98419.03
2019-01-30T12:34:28.245Z,98426.39
2019-01-30T12:36:59.319Z,98422.12
2019-01-30T12:39:29.848Z,98419.77
2019-01-30T12:42:00.347Z,98417.41
2019-01-30T12:47:46.495Z,98415.55
2019-01-30T12:50:17.141Z,98409.17
2019-01-30T12:52:47.456Z,98407.69
2019-01-30T12:55:38.138Z,98401.75
2019-01-30T12:58:08.431Z,98403.23
2019-01-30T13:00:42.123Z,98394.05
2019-01-30T13:03:12.357Z,98395.50
2019-01-30T13:05:42.608Z,98397.38
2019-01-30T13:08:15.383Z,98383.64
2019-01-30T13:10:46.125Z,98400.84
2019-01-30T13:13:16.422Z,98396.95
2019-01-30T13:15:46.807Z,98398.91
2019-01-30T13:18:18.643Z,98401.66
2019-01-30T13:24:18.930Z,98407.48
2019-01-30T13:26:49.286Z,98408.45
2019-01-30T13:29:19.623Z,98405.12
2019-01-30T13:31:50.109Z,98403.11
2019-01-30T13:34:20.697Z,98399.78
2019-01-30T13:36:51.148Z,98405.95
2019-01-30T13:39:21.644Z,98408.19
2019-01-30T13:41:52.774Z,98405.33
2019-01-30T13:44:24.160Z,98400.69
2019-01-30T13:46:54.589Z,98398.20
2019-01-30T13:49:25.245Z,98400.94
2019-01-30T13:52:14.300Z,98403.42
2019-01-30T13:54:44.799Z,98408.25
2019-01-30T13:57:15.213Z,98406.09
2019-01-30T13:59:45.665Z,98401.47
2019-01-30T14:02:16.034Z,98404.33
2019-01-30T14:04:59.527Z,98396.24
2019-01-30T14:07:26.644Z,98391.61
2019-01-30T14:09:57.042Z,98396.10
2019-01-30T14:12:27.370Z,98398.69
2019-01-30T14:14:57.628Z,98392.72
2019-01-30T14:17:37.095Z,98394.02
2019-01-30T14:20:08.390Z,98392.00
2019-01-30T14:22:38.847Z,98386.37
2019-01-30T14:25:10.328Z,98385.48
2019-01-30T14:27:40.751Z,98387.11
2019-01-30T14:33:42.948Z,98383.44
2019-01-30T14:36:14.200Z,98381.73
2019-01-30T14:41:40.497Z,98377.73
2019-01-30T14:44:10.997Z,98376.44
2019-01-30T14:46:41.401Z,98383.89
2019-01-30T14:49:11.933Z,98375.45
2019-01-30T14:51:42.784Z,98376.39
2019-01-30T14:54:13.339Z,98373.12
2019-01-30T14:56:43.768Z,98375.63
2019-01-30T14:59:14.351Z,98378.64
2019-01-30T15:01:45.168Z,98385.81
2019-01-30T15:04:15.826Z,98374.31
2019-01-30T15:06:46.363Z,98374.49
2019-01-30T15:09:16.780Z,98375.34
2019-01-30T15:11:47.475Z,98380.25
2019-01-30T15:14:17.949Z,98373.16
2019-01-30T15:16:48.366Z,98378.55
2019-01-30T15:19:18.822Z,98382.59
2019-01-30T15:21:49.360Z,98384.16
2019-01-30T15:24:20.025Z,98383.20
2019-01-30T15:26:50.552Z,98383.70
2019-01-30T15:29:20.893Z,98388.33
2019-01-30T15:31:58.698Z,98383.94
2019-01-30T15:34:29.074Z,98391.30
2019-01-30T15:36:59.496Z,98387.73
2019-01-30T15:39:29.858Z,98391.17
2019-01-30T15:42:00.678Z,98394.38
2019-01-30T15:44:31.061Z,98389.50
2019-01-30T15:47:01.510Z,98393.08
2019-01-30T15:49:31.934Z,98391.77
2019-01-30T15:52:02.411Z,98395.78
2019-01-30T15:54:33.210Z,98392.58
2019-01-30T15:57:03.965Z,98399.48
2019-01-30T15:59:34.610Z,98401.63
2019-01-30T16:04:42.382Z,98411.09
2019-01-30T16:07:12.692Z,98407.42
2019-01-30T16:09:42.955Z,98410.25
2019-01-30T16:12:13.331Z,98404.32
2019-01-30T16:14:43.740Z,98409.67
2019-01-30T16:17:14.392Z,98400.78
2019-01-30T16:19:44.873Z,98404.32
2019-01-30T16:22:15.231Z,98413.45
2019-01-30T16:24:46.201Z,98409.92
2019-01-30T16:27:16.517Z,98412.27
2019-01-30T16:29:47.003Z,98410.75
2019-01-30T16:32:17.620Z,98410.13
2019-01-30T16:34:48.405Z,98415.84
2019-01-30T16:37:18.864Z,98411.69
2019-01-30T16:43:21.582Z,98424.02
2019-01-30T16:45:52.139Z,98424.02
2019-01-30T16:48:22.421Z,98422.14
2019-01-30T16:50:52.875Z,98436.34
2019-01-30T16:53:23.430Z,98431.25
2019-01-30T16:55:53.896Z,98433.98
2019-01-30T16:58:24.316Z,98428.30
2019-01-30T17:00:54.645Z,98435.28
2019-01-30T17:03:25.075Z,98438.48
2019-01-30T17:06:06.684Z,98434.22
2019-01-30T17:08:27.563Z,98438.97
2019-01-30T17:10:57.867Z,98435.88
2019-01-30T17:13:28.375Z,98437.19
2019-01-30T17:16:01.037Z,98437.77
2019-01-30T17:18:31.487Z,98436.47
2019-01-30T17:21:01.825Z,98433.39
2019-01-30T17:23:32.144Z,98438.73
2019-01-30T17:26:21.234Z,98438.02
2019-01-30T17:28:51.486Z,98437.52
2019-01-30T17:31:40.899Z,98440.63
2019-01-30T17:34:11.248Z,98436.47
2019-01-30T17:36:41.655Z,98428.78
2019-01-30T17:39:12.578Z,98433.28
2019-01-30T17:41:43.257Z,98427.09
2019-01-30T17:44:13.668Z,98427.00
2019-01-30T17:46:44.126Z,98435.98
2019-01-30T17:49:33.207Z,98432.07
2019-01-30T17:52:03.598Z,98435.39
2019-01-30T17:54:33.936Z,98433.75
2019-01-30T17:57:04.317Z,98434.92
2019-01-30T17:59:34.633Z,98434.94
2019-01-30T18:04:43.449Z,98432.09
2019-01-30T18:07:14.492Z,98436.47
2019-01-30T18:09:44.825Z,98431.97
2019-01-30T18:12:15.236Z,98435.64
2019-01-30T18:14:46.742Z,98433.74
2019-01-30T18:17:17.208Z,98441.82
2019-01-30T18:19:47.683Z,98435.63
2019-01-30T18:22:18.047Z,98434.35
2019-01-30T18:24:49.293Z,98439.69
2019-01-30T18:27:20.507Z,98436.83
2019-01-30T18:29:50.994Z,98436.95
2019-01-30T18:32:21.327Z,98442.62
2019-01-30T18:37:46.592Z,98442.99
2019-01-30T18:40:18.806Z,98448.45
2019-01-30T18:43:27.982Z,98446.42
2019-01-30T18:48:35.359Z,98453.08
2019-01-30T18:51:26.391Z,98443.58
2019-01-30T18:53:56.740Z,98449.86
2019-01-30T18:56:38.793Z,98450.45
2019-01-30T18:59:09.247Z,98446.67
2019-01-30T19:01:39.767Z,98445.61
2019-01-30T19:04:10.175Z,98445.63
2019-01-30T19:06:51.702Z,98450.12
2019-01-30T19:09:13.377Z,98455.23
2019-01-30T19:11:43.686Z,98455.91
2019-01-30T19:14:14.585Z,98450.60
2019-01-30T19:16:44.829Z,98447.28
2019-01-30T19:19:15.100Z,98449.89
2019-01-30T19:22:04.214Z,98449.99
2019-01-30T19:24:34.585Z,98443.00
2019-01-30T19:27:05.100Z,98455.44
2019-01-30T19:29:35.509Z,98451.30
2019-01-30T19:32:06.116Z,98451.30
2019-01-30T19:34:36.505Z,98452.95
2019-01-30T19:37:07.597Z,98457.71
2019-01-30T19:39:38.074Z,98458.77
2019-01-30T19:42:08.515Z,98456.88
2019-01-30T19:44:39.213Z,98456.50
2019-01-30T19:47:09.626Z,98455.23
2019-01-30T19:49:40.137Z,98463.87
2019-01-30T19:52:10.597Z,98472.54
2019-01-30T19:54:41.281Z,98470.05
2019-01-30T19:57:23.066Z,98466.82
2019-01-30T19:59:53.615Z,98466.48
2019-01-30T20:02:24.154Z,98475.61
2019-01-30T20:04:54.567Z,98471.33
2019-01-30T20:07:25.126Z,98479.75
2019-01-30T20:09:56.236Z,98475.38
2019-01-30T20:12:26.597Z,98475.83
2019-01-30T20:15:16.047Z,98482.48
2019-01-30T20:17:46.377Z,98481.31
2019-01-30T20:20:55.978Z,98480.00
2019-01-30T20:23:26.432Z,98485.69
2019-01-30T20:28:43.993Z,98477.73
2019-01-30T20:31:16.866Z,98481.90
2019-01-30T20:33:47.341Z,98487.46
2019-01-30T20:36:17.749Z,98493.65
2019-01-30T20:38:48.133Z,98489.73
2019-01-30T20:41:18.549Z,98490.66
2019-01-30T20:44:08.156Z,98494.70
2019-01-30T20:50:14.688Z,98496.73
2019-01-30T20:52:44.975Z,98505.41
2019-01-30T20:55:35.448Z,98501.85
2019-01-30T20:58:26.080Z,98503.97
2019-01-30T21:00:56.496Z,98507.64
2019-01-30T21:03:26.847Z,98508.25
2019-01-30T21:05:57.274Z,98503.38
2019-01-30T21:08:27.726Z,98504.20
2019-01-30T21:10:58.231Z,98505.28
2019-01-30T21:13:28.658Z,98507.30
2019-01-30T21:15:59.048Z,98501.36
2019-01-30T21:18:29.382Z,98508.59
2019-01-30T21:23:37.099Z,98522.00
2019-01-30T21:26:07.550Z,98517.62
2019-01-30T21:28:38.025Z,98511.91
2019-01-30T21:31:09.263Z,98516.55
2019-01-30T21:33:39.798Z,98518.20
2019-01-30T21:36:10.210Z,98519.89
2019-01-30T21:38:40.618Z,98524.14
2019-01-30T21:41:11.113Z,98524.63
2019-01-30T21:43:41.796Z,98527.83
2019-01-30T21:46:30.792Z,98527.34
2019-01-30T21:49:01.105Z,98528.19
2019-01-30T21:51:31.326Z,98521.66
2019-01-30T21:54:01.627Z,98520.48
2019-01-30T21:56:32.063Z,98515.25
2019-01-30T21:59:02.550Z,98528.89
2019-01-30T22:01:33.042Z,98530.67
2019-01-30T22:04:03.401Z,98527.96
2019-01-30T22:06:33.876Z,98526.05
2019-01-30T22:09:04.648Z,98530.67
2019-01-30T22:11:35.354Z,98529.62
2019-01-30T22:14:05.830Z,98532.34
2019-01-30T22:16:36.254Z,98532.00
2019-01-30T22:19:06.741Z,98537.82
2019-01-30T22:21:37.106Z,98541.02
2019-01-30T22:24:07.677Z,98534.47
2019-01-30T22:26:38.179Z,98536.98
2019-01-30T22:29:08.805Z,98540.53
2019-01-30T22:31:39.143Z,98533.04
2019-01-30T22:34:09.664Z,98542.80
2019-01-30T22:36:40.126Z,98550.97
2019-01-30T22:39:11.155Z,98541.24
2019-01-30T22:41:41.879Z,98552.06
2019-01-30T22:44:12.308Z,98555.37
2019-01-30T22:46:42.715Z,98549.55
2019-01-30T22:49:13.159Z,98556.92
2019-01-30T22:51:43.569Z,98560.60
2019-01-30T22:54:14.113Z,98558.00
2019-01-30T22:56:44.528Z,98556.67
2019-01-30T22:59:14.922Z,98557.41
2019-01-30T23:02:06.405Z,98560.22
2019-01-30T23:05:14.093Z,98554.05
2019-01-30T23:08:23.388Z,98554.19
2019-01-30T23:14:32.746Z,98554.54
2019-01-30T23:17:40.505Z,98555.11
2019-01-30T23:20:33.878Z,98560.10
2019-01-30T23:47:41.097Z,98560.80
2019-01-30T23:54:44.587Z,98572.54
2019-01-30T23:56:41.927Z,98573.95
2019-01-30T23:59:50.066Z,98568.63
